createdAt,value
2022-09-22T00:01:32.234Z,101649.19
2022-09-22T00:04:03.401Z,101645.31
2022-09-22T00:06:43.534Z,101651.72
2022-09-22T00:09:13.678Z,101641.72
2022-09-22T00:11:44.875Z,101650.75
2022-09-22T00:14:22.251Z,101652.31
2022-09-22T00:16:53.902Z,101653.13
2022-09-22T00:19:29.034Z,101644.72
2022-09-22T00:21:57.141Z,101648.31
2022-09-22T00:24:26.200Z,101645.44
2022-09-22T00:26:57.430Z,101642.69
2022-09-22T00:29:27.086Z,101645.69
2022-09-22T00:31:55.795Z,101644.59
2022-09-22T00:34:26.037Z,101648.44
2022-09-22T00:36:53.836Z,101648.81
2022-09-22T00:39:21.871Z,101643.53
2022-09-22T00:41:52.019Z,101635.69
2022-09-22T00:44:38.559Z,101637.59
2022-09-22T00:47:06.479Z,101639.19
2022-09-22T00:49:52.266Z,101633.16
2022-09-22T00:52:24.759Z,101634.22
2022-09-22T00:54:55.464Z,101627.34
2022-09-22T00:57:26.694Z,101629.31
2022-09-22T00:59:55.500Z,101625.53
2022-09-22T01:02:24.236Z,101616.50
2022-09-22T01:04:53.433Z,101626.16
2022-09-22T01:07:25.208Z,101624.84
2022-09-22T01:09:53.217Z,101622.31
2022-09-22T01:12:21.250Z,101624.00
2022-09-22T01:15:03.994Z,101616.69
2022-09-22T01:17:38.659Z,101620.03
2022-09-22T01:20:29.413Z,101618.81
2022-09-22T01:23:09.066Z,101614.09
2022-09-22T01:25:59.508Z,101604.84
2022-09-22T01:28:48.895Z,101606.66
2022-09-22T01:31:38.857Z,101606.16
2022-09-22T01:34:20.064Z,101603.66
2022-09-22T01:37:02.570Z,101598.34
2022-09-22T01:39:40.263Z,101605.00
2022-09-22T01:42:16.510Z,101602.56
2022-09-22T01:44:55.217Z,101591.38
2022-09-22T01:47:40.791Z,101592.91
2022-09-22T01:50:16.492Z,101596.56
2022-09-22T01:52:45.321Z,101592.91
2022-09-22T01:55:19.950Z,101594.38
2022-09-22T01:58:04.844Z,101595.22
2022-09-22T02:00:32.737Z,101590.03
2022-09-22T02:03:42.343Z,101587.41
2022-09-22T02:06:14.390Z,101582.69
2022-09-22T02:08:57.196Z,101589.72
2022-09-22T02:11:26.015Z,101591.28
2022-09-22T02:13:54.824Z,101587.41
2022-09-22T02:16:24.951Z,101587.63
2022-09-22T02:19:11.623Z,101581.47
2022-09-22T02:21:43.020Z,101592.50
2022-09-22T02:24:45.508Z,101585.75
2022-09-22T02:27:28.011Z,101584.09
2022-09-22T02:30:16.615Z,101581.94
2022-09-22T02:32:48.911Z,101586.38
2022-09-22T02:35:17.151Z,101578.44
2022-09-22T02:38:02.894Z,101576.78
2022-09-22T02:40:36.177Z,101572.81
2022-09-22T02:43:43.848Z,101572.78
2022-09-22T02:46:25.761Z,101569.56
2022-09-22T02:49:03.944Z,101570.81
2022-09-22T02:51:34.540Z,101570.28
2022-09-22T02:54:03.492Z,101572.47
2022-09-22T02:56:31.123Z,101569.13
2022-09-22T02:58:58.915Z,101569.38
2022-09-22T03:01:26.944Z,101560.22
2022-09-22T03:03:54.881Z,101565.38
2022-09-22T03:06:22.428Z,101569.81
2022-09-22T03:08:50.379Z,101570.69
2022-09-22T03:11:17.900Z,101575.09
2022-09-22T03:13:45.574Z,101570.66
2022-09-22T03:16:13.808Z,101572.81
2022-09-22T03:18:41.466Z,101573.00
2022-09-22T03:21:09.390Z,101567.22
2022-09-22T03:23:36.843Z,101558.56
2022-09-22T03:26:04.454Z,101556.38
2022-09-22T03:28:32.469Z,101552.09
2022-09-22T03:30:59.952Z,101554.47
2022-09-22T03:33:27.502Z,101546.47
2022-09-22T03:35:54.998Z,101557.75
2022-09-22T03:38:22.785Z,101546.47
2022-09-22T03:40:52.654Z,101560.63
2022-09-22T03:43:21.518Z,101548.69
2022-09-22T03:45:49.212Z,101548.59
2022-09-22T03:48:18.284Z,101542.22
2022-09-22T03:50:46.367Z,101542.63
2022-09-22T03:53:13.826Z,101545.63
2022-09-22T03:55:42.068Z,101539.03
2022-09-22T03:58:09.589Z,101536.34
2022-09-22T04:00:37.180Z,101538.72
2022-09-22T04:03:05.011Z,101540.03
2022-09-22T04:05:32.659Z,101537.28
2022-09-22T04:08:01.020Z,101533.72
2022-09-22T04:10:28.863Z,101536.34
2022-09-22T04:12:56.381Z,101538.03
2022-09-22T04:15:23.919Z,101531.53
2022-09-22T04:17:51.467Z,101538.47
2022-09-22T04:20:19.525Z,101538.28
2022-09-22T04:22:47.136Z,101538.88
2022-09-22T04:25:14.768Z,101542.03
2022-09-22T04:27:42.736Z,101532.25
2022-09-22T04:30:11.720Z,101535.38
2022-09-22T04:32:40.091Z,101536.97
2022-09-22T04:35:09.491Z,101536.13
2022-09-22T04:37:37.468Z,101541.78
2022-09-22T04:40:06.176Z,101546.81
2022-09-22T04:42:34.132Z,101546.66
2022-09-22T04:45:02.085Z,101534.19
2022-09-22T04:47:30.571Z,101551.13
2022-09-22T04:49:58.079Z,101538.22
2022-09-22T04:52:26.371Z,101552.41
2022-09-22T04:54:54.107Z,101553.38
2022-09-22T04:57:22.834Z,101553.31
2022-09-22T04:59:50.740Z,101557.59
2022-09-22T05:02:19.170Z,101554.97
2022-09-22T05:04:46.682Z,101559.59
2022-09-22T05:07:15.194Z,101556.59
2022-09-22T05:09:42.868Z,101556.34
2022-09-22T05:12:10.364Z,101558.50
2022-09-22T05:14:38.356Z,101567.53
2022-09-22T05:17:06.284Z,101562.63
2022-09-22T05:19:34.606Z,101555.78
2022-09-22T05:22:02.574Z,101553.88
2022-09-22T05:24:30.396Z,101560.59
2022-09-22T05:26:59.104Z,101569.59
2022-09-22T05:29:28.109Z,101559.13
2022-09-22T05:31:56.170Z,101564.44
2022-09-22T05:34:24.277Z,101562.88
2022-09-22T05:36:51.846Z,101567.81
2022-09-22T05:39:19.536Z,101566.75
2022-09-22T05:41:49.930Z,101562.84
2022-09-22T05:44:17.487Z,101562.84
2022-09-22T05:46:46.815Z,101561.13
2022-09-22T05:49:14.511Z,101559.09
2022-09-22T05:51:42.711Z,101557.31
2022-09-22T05:54:10.428Z,101560.56
2022-09-22T05:56:37.971Z,101552.63
2022-09-22T05:59:05.917Z,101550.66
2022-09-22T06:01:34.174Z,101548.16
2022-09-22T06:04:01.952Z,101549.13
2022-09-22T06:06:29.459Z,101547.28
2022-09-22T06:08:57.283Z,101552.75
2022-09-22T06:11:24.875Z,101544.63
2022-09-22T06:13:52.437Z,101544.94
2022-09-22T06:16:21.228Z,101551.69
2022-09-22T06:18:49.674Z,101555.88
2022-09-22T06:21:17.683Z,101551.09
2022-09-22T06:23:45.180Z,101554.16
2022-09-22T06:26:12.856Z,101551.38
2022-09-22T06:28:40.865Z,101558.81
2022-09-22T06:31:08.875Z,101560.69
2022-09-22T06:33:36.384Z,101560.66
2022-09-22T06:36:08.078Z,101560.16
2022-09-22T06:38:36.293Z,101559.81
2022-09-22T06:41:06.731Z,101560.44
2022-09-22T06:43:38.031Z,101550.84
2022-09-22T06:46:05.907Z,101552.00
2022-09-22T06:48:33.590Z,101555.69
2022-09-22T06:51:01.505Z,101559.06
2022-09-22T06:53:29.268Z,101559.38
2022-09-22T06:55:58.497Z,101553.78
2022-09-22T06:58:28.057Z,101565.16
2022-09-22T07:01:00.932Z,101569.59
2022-09-22T07:03:29.061Z,101573.28
2022-09-22T07:06:01.043Z,101573.25
2022-09-22T07:08:31.592Z,101567.13
2022-09-22T07:11:02.353Z,101565.84
2022-09-22T07:13:32.324Z,101558.97
2022-09-22T07:16:19.653Z,101564.56
2022-09-22T07:18:50.115Z,101553.34
2022-09-22T07:21:28.061Z,101557.53
2022-09-22T07:23:57.155Z,101559.03
2022-09-22T07:26:29.013Z,101567.50
2022-09-22T07:28:59.741Z,101561.91
2022-09-22T07:31:29.578Z,101568.25
2022-09-22T07:34:01.338Z,101567.66
2022-09-22T07:36:31.408Z,101572.84
2022-09-22T07:39:07.224Z,101578.56
2022-09-22T07:41:41.864Z,101568.63
2022-09-22T07:44:30.340Z,101573.09
2022-09-22T07:46:58.445Z,101576.66
2022-09-22T07:49:26.226Z,101563.78
2022-09-22T07:51:57.746Z,101574.59
2022-09-22T07:54:26.812Z,101578.53
2022-09-22T07:57:02.264Z,101580.31
2022-09-22T07:59:29.864Z,101576.06
2022-09-22T08:01:58.232Z,101576.72
2022-09-22T08:04:26.781Z,101571.81
2022-09-22T08:06:58.239Z,101573.03
2022-09-22T08:09:28.282Z,101582.53
2022-09-22T08:11:56.056Z,101580.19
2022-09-22T08:14:24.313Z,101585.81
2022-09-22T08:16:53.603Z,101581.66
2022-09-22T08:19:23.932Z,101584.81
2022-09-22T08:21:54.430Z,101582.16
2022-09-22T08:24:23.702Z,101580.63
2022-09-22T08:26:53.809Z,101578.16
2022-09-22T08:29:22.164Z,101577.94
2022-09-22T08:31:51.527Z,101576.97
2022-09-22T08:34:20.403Z,101578.00
2022-09-22T08:36:49.104Z,101578.78
2022-09-22T08:39:18.315Z,101574.59
2022-09-22T08:41:47.057Z,101579.59
2022-09-22T08:44:24.035Z,101571.16
2022-09-22T08:46:53.525Z,101579.78
2022-09-22T08:49:42.615Z,101571.09
2022-09-22T08:52:25.545Z,101582.22
2022-09-22T08:54:59.757Z,101577.19
2022-09-22T08:57:42.368Z,101583.84
2022-09-22T09:00:13.026Z,101577.34
2022-09-22T09:02:55.594Z,101580.50
2022-09-22T09:05:39.274Z,101579.28
2022-09-22T09:08:15.895Z,101575.13
2022-09-22T09:10:56.317Z,101572.06
2022-09-22T09:13:48.797Z,101575.13
2022-09-22T09:16:37.803Z,101570.88
2022-09-22T09:19:17.129Z,101562.47
2022-09-22T09:21:51.797Z,101571.38
2022-09-22T09:27:30.569Z,101564.25
2022-09-22T09:30:11.573Z,101559.53
2022-09-22T09:32:53.367Z,101567.53
2022-09-22T09:35:50.546Z,101565.41
2022-09-22T09:38:26.340Z,101564.72
2022-09-22T09:41:01.551Z,101565.47
2022-09-22T09:43:30.291Z,101568.38
2022-09-22T09:46:10.309Z,101561.22
2022-09-22T09:48:59.530Z,101553.94
2022-09-22T09:51:28.823Z,101558.78
2022-09-22T09:53:58.575Z,101548.06
2022-09-22T09:56:29.153Z,101554.06
2022-09-22T09:59:19.044Z,101552.06
2022-09-22T10:01:50.790Z,101554.09
2022-09-22T10:04:29.935Z,101536.31
2022-09-22T10:07:21.499Z,101528.91
2022-09-22T10:09:51.886Z,101531.03
2022-09-22T10:12:31.332Z,101525.81
2022-09-22T10:15:01.480Z,101525.63
2022-09-22T10:17:33.936Z,101534.06
2022-09-22T10:20:23.274Z,101527.25
2022-09-22T10:22:50.792Z,101534.00
2022-09-22T10:25:23.313Z,101526.63
2022-09-22T10:28:15.801Z,101526.28
2022-09-22T10:30:46.511Z,101519.13
2022-09-22T10:33:20.568Z,101520.25
2022-09-22T10:36:15.045Z,101523.16
2022-09-22T10:38:43.793Z,101526.00
2022-09-22T10:41:19.355Z,101526.41
2022-09-22T10:44:15.474Z,101521.94
2022-09-22T10:47:27.385Z,101524.88
2022-09-22T10:50:01.000Z,101524.41
2022-09-22T10:52:28.694Z,101527.88
2022-09-22T10:55:11.100Z,101521.97
2022-09-22T10:58:00.243Z,101522.19
2022-09-22T11:00:35.258Z,101513.50
2022-09-22T11:03:05.790Z,101510.41
2022-09-22T11:06:29.725Z,101505.38
2022-09-22T11:09:45.645Z,101498.53
2022-09-22T11:12:43.079Z,101484.97
2022-09-22T11:15:39.984Z,101494.50
2022-09-22T11:18:33.610Z,101489.28
2022-09-22T11:21:10.874Z,101493.06
2022-09-22T11:24:00.448Z,101483.69
2022-09-22T11:26:29.155Z,101475.16
2022-09-22T11:29:09.818Z,101479.13
2022-09-22T11:31:54.199Z,101467.78
2022-09-22T11:34:48.836Z,101467.72
2022-09-22T11:37:31.753Z,101469.03
2022-09-22T11:40:27.484Z,101466.56
2022-09-22T11:43:21.805Z,101463.91
2022-09-22T11:46:15.736Z,101463.81
2022-09-22T11:49:09.977Z,101456.16
2022-09-22T11:51:45.096Z,101460.28
2022-09-22T11:54:47.026Z,101454.06
2022-09-22T11:57:18.168Z,101452.41
2022-09-22T11:59:53.713Z,101452.41
2022-09-22T12:03:01.932Z,101448.75
2022-09-22T12:05:39.309Z,101447.22
2022-09-22T12:08:25.636Z,101438.63
2022-09-22T12:10:54.323Z,101440.09
2022-09-22T12:13:28.237Z,101430.19
2022-09-22T12:16:22.528Z,101431.22
2022-09-22T12:18:50.604Z,101422.97
2022-09-22T12:21:27.420Z,101430.19
2022-09-22T12:23:57.230Z,101425.00
2022-09-22T12:26:33.633Z,101419.38
2022-09-22T12:29:07.086Z,101409.44
2022-09-22T12:31:42.666Z,101414.44
2022-09-22T12:34:22.413Z,101403.00
2022-09-22T12:36:55.519Z,101409.09
2022-09-22T12:39:25.079Z,101400.78
2022-09-22T12:42:29.784Z,101397.75
2022-09-22T12:45:03.040Z,101400.28
2022-09-22T12:47:38.374Z,101387.84
2022-09-22T12:50:27.881Z,101387.03
2022-09-22T12:53:03.904Z,101388.63
2022-09-22T12:55:41.081Z,101387.25
2022-09-22T12:58:20.666Z,101390.47
2022-09-22T13:00:50.758Z,101390.00
2022-09-22T13:03:27.594Z,101403.28
2022-09-22T13:05:56.618Z,101384.69
2022-09-22T13:08:33.808Z,101376.16
2022-09-22T13:11:09.423Z,101375.19
2022-09-22T13:13:46.872Z,101370.16
2022-09-22T13:16:15.001Z,101380.22
2022-09-22T13:18:44.031Z,101389.03
2022-09-22T13:21:14.922Z,101392.34
2022-09-22T13:23:51.519Z,101379.22
2022-09-22T13:26:29.690Z,101375.31
2022-09-22T13:29:01.711Z,101372.03
2022-09-22T13:31:36.637Z,101368.34
2022-09-22T13:34:35.423Z,101363.44
2022-09-22T13:37:33.517Z,101357.88
2022-09-22T13:40:02.177Z,101348.72
2022-09-22T13:42:32.618Z,101350.69
2022-09-22T13:45:18.634Z,101355.72
2022-09-22T13:47:48.910Z,101349.31
2022-09-22T13:50:22.160Z,101347.19
2022-09-22T13:52:51.936Z,101348.69
2022-09-22T13:55:33.716Z,101349.56
2022-09-22T13:58:03.255Z,101333.53
2022-09-22T14:01:08.670Z,101334.53
2022-09-22T14:03:37.245Z,101338.44
2022-09-22T14:06:09.311Z,101331.66
2022-09-22T14:08:37.774Z,101328.50
2022-09-22T14:11:12.075Z,101326.16
2022-09-22T14:14:01.036Z,101321.78
2022-09-22T14:16:51.612Z,101323.22
2022-09-22T14:19:38.115Z,101319.16
2022-09-22T14:22:15.566Z,101317.00
2022-09-22T14:24:49.293Z,101304.53
2022-09-22T14:27:21.285Z,101310.03
2022-09-22T14:29:52.114Z,101316.59
2022-09-22T14:32:25.579Z,101297.13
2022-09-22T14:34:58.487Z,101307.03
2022-09-22T14:37:43.151Z,101299.44
2022-09-22T14:40:23.016Z,101290.94
2022-09-22T14:43:03.228Z,101307.91
2022-09-22T14:45:32.777Z,101309.63
2022-09-22T14:48:13.020Z,101295.59
2022-09-22T14:50:45.773Z,101298.41
2022-09-22T14:53:13.688Z,101306.38
2022-09-22T14:55:48.460Z,101300.69
2022-09-22T14:58:24.031Z,101297.91
2022-09-22T15:01:17.255Z,101298.75
2022-09-22T15:03:55.251Z,101291.09
2022-09-22T15:06:23.473Z,101288.38
2022-09-22T15:08:52.782Z,101290.81
2022-09-22T15:11:20.449Z,101282.47
2022-09-22T15:13:52.797Z,101286.13
2022-09-22T15:16:40.171Z,101289.25
2022-09-22T15:19:14.427Z,101287.00
2022-09-22T15:21:47.003Z,101289.16
2022-09-22T15:24:21.280Z,101287.41
2022-09-22T15:26:49.539Z,101287.13
2022-09-22T15:29:17.398Z,101287.91
2022-09-22T15:31:45.113Z,101286.09
2022-09-22T15:34:16.597Z,101290.66
2022-09-22T15:36:46.661Z,101293.06
2022-09-22T15:39:23.310Z,101293.59
2022-09-22T15:41:52.761Z,101290.84
2022-09-22T15:44:20.637Z,101298.00
2022-09-22T15:46:52.532Z,101300.88
2022-09-22T15:49:25.062Z,101297.66
2022-09-22T15:51:53.040Z,101310.84
2022-09-22T15:54:23.824Z,101307.50
2022-09-22T15:56:53.385Z,101306.84
2022-09-22T15:59:26.709Z,101306.72
2022-09-22T16:01:57.475Z,101303.16
2022-09-22T16:04:31.762Z,101311.75
2022-09-22T16:07:04.737Z,101309.50
2022-09-22T16:09:32.300Z,101319.13
2022-09-22T16:11:59.971Z,101304.94
2022-09-22T16:14:28.441Z,101311.88
2022-09-22T16:16:56.119Z,101313.09
2022-09-22T16:19:24.629Z,101312.75
2022-09-22T16:21:54.403Z,101316.78
2022-09-22T16:24:22.917Z,101308.91
2022-09-22T16:26:51.859Z,101316.44
2022-09-22T16:29:19.663Z,101320.63
2022-09-22T16:31:47.846Z,101317.22
2022-09-22T16:34:16.494Z,101323.56
2022-09-22T16:36:44.869Z,101318.72
2022-09-22T16:39:12.392Z,101326.22
2022-09-22T16:41:44.802Z,101315.81
2022-09-22T16:44:13.328Z,101317.78
2022-09-22T16:46:41.029Z,101318.06
2022-09-22T16:49:12.077Z,101323.75
2022-09-22T16:51:42.338Z,101328.44
2022-09-22T16:54:13.822Z,101322.91
2022-09-22T16:56:43.928Z,101332.47
2022-09-22T16:59:15.416Z,101331.56
2022-09-22T17:01:44.141Z,101336.94
2022-09-22T17:04:16.542Z,101328.94
2022-09-22T17:06:44.697Z,101334.88
2022-09-22T17:09:14.359Z,101337.44
2022-09-22T17:11:44.098Z,101333.66
2022-09-22T17:14:15.483Z,101339.88
2022-09-22T17:16:45.243Z,101337.53
2022-09-22T17:19:19.496Z,101343.00
2022-09-22T17:21:49.267Z,101344.91
2022-09-22T17:24:19.302Z,101353.16
2022-09-22T17:26:55.167Z,101347.50
2022-09-22T17:29:28.320Z,101350.09
2022-09-22T17:31:59.760Z,101358.09
2022-09-22T17:34:28.909Z,101358.69
2022-09-22T17:36:57.988Z,101357.09
2022-09-22T17:39:27.375Z,101359.53
2022-09-22T17:41:55.224Z,101360.84
2022-09-22T17:44:23.390Z,101371.13
2022-09-22T17:47:11.482Z,101371.31
2022-09-22T17:50:02.908Z,101371.75
2022-09-22T17:52:33.517Z,101373.19
2022-09-22T17:55:08.043Z,101381.78
2022-09-22T17:57:41.852Z,101386.66
2022-09-22T18:00:10.759Z,101379.41
2022-09-22T18:02:39.103Z,101394.16
2022-09-22T18:05:10.476Z,101393.03
2022-09-22T18:07:40.388Z,101402.59
2022-09-22T18:10:14.469Z,101407.75
2022-09-22T18:12:42.372Z,101413.66
2022-09-22T18:15:13.536Z,101418.09
2022-09-22T18:17:43.040Z,101424.00
2022-09-22T18:20:16.287Z,101421.59
2022-09-22T18:22:48.418Z,101423.13
2022-09-22T18:25:19.638Z,101431.78
2022-09-22T18:27:50.710Z,101430.00
2022-09-22T18:30:19.559Z,101436.63
2022-09-22T18:32:48.367Z,101441.09
2022-09-22T18:35:16.427Z,101440.84
2022-09-22T18:37:44.636Z,101441.81
2022-09-22T18:40:12.856Z,101447.69
2022-09-22T18:42:43.051Z,101453.75
2022-09-22T18:45:11.254Z,101453.38
2022-09-22T18:47:43.860Z,101462.91
2022-09-22T18:50:13.055Z,101466.63
2022-09-22T18:52:43.472Z,101476.19
2022-09-22T18:55:14.134Z,101479.72
2022-09-22T18:57:41.615Z,101486.56
2022-09-22T19:00:11.315Z,101480.19
2022-09-22T19:02:39.572Z,101490.66
2022-09-22T19:05:08.636Z,101489.09
2022-09-22T19:07:43.030Z,101496.13
2022-09-22T19:10:19.034Z,101497.53
2022-09-22T19:12:47.144Z,101502.09
2022-09-22T19:15:18.850Z,101503.44
2022-09-22T19:17:49.595Z,101504.66
2022-09-22T19:20:23.958Z,101501.31
2022-09-22T19:22:52.600Z,101508.81
2022-09-22T19:25:22.098Z,101507.72
2022-09-22T19:27:52.374Z,101514.81
2022-09-22T19:30:23.289Z,101515.75
2022-09-22T19:32:53.602Z,101515.56
2022-09-22T19:35:21.772Z,101512.41
2022-09-22T19:37:51.901Z,101515.78
2022-09-22T19:40:21.036Z,101515.44
2022-09-22T19:42:49.904Z,101511.13
2022-09-22T19:45:19.089Z,101521.50
2022-09-22T19:47:49.573Z,101516.81
2022-09-22T19:50:17.989Z,101517.91
2022-09-22T19:52:45.498Z,101523.09
2022-09-22T19:55:13.331Z,101523.94
2022-09-22T19:57:41.837Z,101522.03
2022-09-22T20:00:17.234Z,101529.00
2022-09-22T20:02:45.490Z,101523.38
2022-09-22T20:05:20.726Z,101522.53
2022-09-22T20:07:49.079Z,101523.38
2022-09-22T20:10:19.024Z,101528.41
2022-09-22T20:12:47.002Z,101529.69
2022-09-22T20:15:15.893Z,101530.59
2022-09-22T20:17:46.276Z,101536.00
2022-09-22T20:20:25.295Z,101538.75
2022-09-22T20:23:00.179Z,101545.75
2022-09-22T20:25:30.382Z,101550.56
2022-09-22T20:27:58.974Z,101560.56
2022-09-22T20:30:27.532Z,101561.16
2022-09-22T20:32:55.030Z,101557.19
2022-09-22T20:35:22.730Z,101559.44
2022-09-22T20:37:51.697Z,101563.38
2022-09-22T20:40:21.604Z,101566.41
2022-09-22T20:42:50.863Z,101566.41
2022-09-22T20:45:21.027Z,101565.44
2022-09-22T20:47:49.575Z,101568.91
2022-09-22T20:50:18.535Z,101569.03
2022-09-22T20:52:47.430Z,101577.84
2022-09-22T20:55:15.583Z,101569.53
2022-09-22T20:57:43.842Z,101587.09
2022-09-22T21:00:13.263Z,101589.34
2022-09-22T21:02:41.117Z,101590.69
2022-09-22T21:05:08.930Z,101589.59
2022-09-22T21:07:36.883Z,101593.78
2022-09-22T21:10:23.343Z,101599.59
2022-09-22T21:12:55.025Z,101589.38
2022-09-22T21:15:22.991Z,101602.81
2022-09-22T21:17:52.922Z,101596.69
2022-09-22T21:20:20.635Z,101594.38
2022-09-22T21:22:48.187Z,101591.72
2022-09-22T21:25:16.117Z,101601.00
2022-09-22T21:27:45.290Z,101604.56
2022-09-22T21:30:13.283Z,101601.88
2022-09-22T21:32:40.838Z,101600.66
2022-09-22T21:35:08.971Z,101600.28
2022-09-22T21:37:36.537Z,101605.47
2022-09-22T21:40:04.496Z,101600.56
2022-09-22T21:42:32.468Z,101606.56
2022-09-22T21:45:00.017Z,101596.91
2022-09-22T21:47:27.462Z,101606.63
2022-09-22T21:49:54.957Z,101603.41
2022-09-22T21:52:22.866Z,101610.28
2022-09-22T21:54:50.839Z,101604.88
2022-09-22T21:57:18.403Z,101607.63
2022-09-22T21:59:46.361Z,101613.88
2022-09-22T22:02:14.109Z,101607.50
2022-09-22T22:04:41.898Z,101606.31
2022-09-22T22:07:11.076Z,101609.91
2022-09-22T22:09:38.615Z,101613.72
2022-09-22T22:12:06.801Z,101611.72
2022-09-22T22:14:34.913Z,101611.56
2022-09-22T22:17:04.205Z,101609.59
2022-09-22T22:19:32.743Z,101607.19
2022-09-22T22:22:00.311Z,101604.00
2022-09-22T22:24:28.956Z,101606.75
2022-09-22T22:27:01.354Z,101598.75
2022-09-22T22:29:32.201Z,101599.31
2022-09-22T22:31:59.680Z,101606.22
2022-09-22T22:34:28.035Z,101603.47
2022-09-22T22:36:56.171Z,101602.34
2022-09-22T22:39:24.672Z,101603.66
2022-09-22T22:41:54.543Z,101607.59
2022-09-22T22:44:22.865Z,101604.03
2022-09-22T22:46:50.427Z,101603.00
2022-09-22T22:49:17.977Z,101606.13
2022-09-22T22:51:46.124Z,101619.13
2022-09-22T22:54:14.495Z,101606.56
2022-09-22T22:56:43.716Z,101603.63
2022-09-22T22:59:13.362Z,101602.53
2022-09-22T23:01:44.035Z,101602.00
2022-09-22T23:04:12.411Z,101600.84
2022-09-22T23:06:47.384Z,101595.78
2022-09-22T23:09:16.887Z,101592.81
2022-09-22T23:11:46.322Z,101591.88
2022-09-22T23:14:16.243Z,101598.75
2022-09-22T23:16:46.407Z,101596.00
2022-09-22T23:19:17.318Z,101592.03
2022-09-22T23:21:46.210Z,101596.34
2022-09-22T23:24:19.135Z,101586.56
2022-09-22T23:26:47.793Z,101590.44
2022-09-22T23:29:15.376Z,101584.84
2022-09-22T23:31:42.998Z,101592.53
2022-09-22T23:34:10.578Z,101595.25
2022-09-22T23:36:39.825Z,101590.59
2022-09-22T23:39:07.655Z,101594.50
2022-09-22T23:41:37.276Z,101593.44
2022-09-22T23:44:06.800Z,101593.56
2022-09-22T23:46:35.095Z,101586.91
2022-09-22T23:49:02.814Z,101588.81
2022-09-22T23:51:31.062Z,101588.31
2022-09-22T23:53:58.670Z,101587.56
2022-09-22T23:56:26.990Z,101585.16
2022-09-22T23:58:55.603Z,101587.47
